Time;durP1;ratioP1;P1;durP2;ratioP2;P2;SDS_P1;SDS_P2;PMS_P1;PMS_P2;Temp;Humidity;BMP_temperature;BMP_pressure;BME280_temperature;BME280_humidity;BME280_pressure;Samples;Min_cycle;Max_cycle;Signal;HPM_P1;HPM_P2
2024/02/04 00:00:10;;;;;;;0.98;0.70;;;9.40;99.90;;;;;;5033710;28;20056;-67
2024/02/04 00:02:38;;;;;;;1.17;0.60;;;9.40;99.90;;;;;;5040611;28;20485;-67
2024/02/04 00:05:04;;;;;;;2.47;0.80;;;9.40;99.90;;;;;;5036118;28;20041;-68
2024/02/04 00:07:29;;;;;;;1.05;0.65;;;9.40;99.90;;;;;;5039823;28;20530;-68
2024/02/04 00:09:58;;;;;;;1.88;0.93;;;9.40;99.90;;;;;;5042015;28;20609;-67
2024/02/04 00:12:23;;;;;;;1.17;0.70;;;9.40;99.90;;;;;;5039084;28;20033;-67
2024/02/04 00:14:55;;;;;;;1.83;0.90;;;9.30;99.90;;;;;;5041727;28;20034;-67
2024/02/04 00:17:23;;;;;;;1.30;0.90;;;9.30;99.90;;;;;;5023585;28;20055;-67
2024/02/04 00:19:49;;;;;;;2.20;1.00;;;9.30;99.90;;;;;;5040780;28;20470;-67
2024/02/04 00:22:18;;;;;;;4.45;1.52;;;9.20;99.90;;;;;;5041589;28;20148;-67
2024/02/04 00:24:44;;;;;;;2.22;0.90;;;9.10;99.90;;;;;;5040677;28;20029;-67
2024/02/04 00:27:09;;;;;;;2.17;0.93;;;9.10;99.90;;;;;;5038010;28;20032;-67
2024/02/04 00:29:35;;;;;;;2.13;0.80;;;9.10;99.90;;;;;;5018520;28;20187;-67
2024/02/04 00:32:01;;;;;;;2.08;0.82;;;9.00;99.90;;;;;;5045166;28;20037;-67
2024/02/04 00:34:27;;;;;;;2.63;0.90;;;9.00;99.90;;;;;;5022056;28;20044;-67
2024/02/04 00:36:53;;;;;;;1.88;0.95;;;9.10;99.90;;;;;;5039308;28;20490;-67
2024/02/04 00:39:18;;;;;;;2.22;0.90;;;9.10;99.90;;;;;;5042939;28;20044;-67
2024/02/04 00:41:44;;;;;;;6.15;1.15;;;9.10;99.90;;;;;;5039265;28;20059;-67
2024/02/04 00:44:10;;;;;;;1.77;0.93;;;9.10;99.90;;;;;;5037390;28;20049;-67
2024/02/04 00:46:38;;;;;;;2.53;1.02;;;9.00;99.90;;;;;;5037281;28;20382;-68
2024/02/04 00:49:04;;;;;;;4.22;1.02;;;9.00;99.90;;;;;;5040558;28;20029;-67
2024/02/04 00:51:33;;;;;;;1.55;0.60;;;9.00;99.90;;;;;;5037960;28;20496;-67
2024/02/04 00:54:05;;;;;;;1.92;0.85;;;9.00;99.90;;;;;;5041595;28;20184;-67
2024/02/04 00:56:33;;;;;;;1.60;0.68;;;9.00;99.90;;;;;;5020555;28;20043;-67
2024/02/04 00:58:59;;;;;;;1.30;0.77;;;8.90;99.90;;;;;;5039408;28;20119;-67
2024/02/04 01:01:25;;;;;;;1.45;0.82;;;9.00;99.90;;;;;;5042691;28;20135;-68
2024/02/04 01:03:51;;;;;;;1.10;0.70;;;9.00;99.90;;;;;;5054051;28;20482;-67
2024/02/04 01:06:19;;;;;;;1.85;0.95;;;8.90;99.90;;;;;;5036850;28;20116;-67
2024/02/04 01:08:45;;;;;;;1.15;0.50;;;8.90;99.90;;;;;;5038844;28;20736;-67
2024/02/04 01:11:11;;;;;;;2.05;0.70;;;9.00;99.90;;;;;;5040129;28;20104;-67
2024/02/04 01:13:36;;;;;;;0.45;0.28;;;9.00;99.90;;;;;;5037954;28;20029;-67
2024/02/04 01:16:02;;;;;;;1.58;0.82;;;8.90;99.90;;;;;;5041183;28;20068;-67
2024/02/04 01:18:28;;;;;;;0.22;0.20;;;8.90;99.90;;;;;;5031941;28;20030;-67
2024/02/04 01:20:54;;;;;;;0.30;0.17;;;8.80;99.90;;;;;;5040334;28;20437;-67
2024/02/04 01:23:20;;;;;;;0.40;0.38;;;8.90;99.90;;;;;;5036777;28;20037;-67
2024/02/04 01:25:46;;;;;;;0.13;0.08;;;8.90;99.90;;;;;;5039641;28;20030;-70
2024/02/04 01:28:14;;;;;;;0.80;0.47;;;8.90;99.90;;;;;;5037342;28;20021;-69
2024/02/04 01:30:40;;;;;;;0.28;0.20;;;8.90;99.90;;;;;;5042977;28;20025;-67
2024/02/04 01:33:06;;;;;;;0.17;0.17;;;8.90;99.90;;;;;;5037499;28;20032;-67
2024/02/04 01:35:31;;;;;;;0.20;0.17;;;8.90;99.90;;;;;;5035962;28;20033;-67
2024/02/04 01:37:57;;;;;;;0.93;0.30;;;8.90;99.90;;;;;;5043064;28;20116;-67
2024/02/04 01:40:23;;;;;;;0.93;0.40;;;8.90;99.90;;;;;;5042760;28;20508;-68
2024/02/04 01:42:48;;;;;;;0.90;0.45;;;8.90;99.90;;;;;;5032748;28;20091;-68
2024/02/04 01:45:14;;;;;;;1.48;0.38;;;8.90;99.90;;;;;;5037255;28;20029;-68
2024/02/04 01:47:40;;;;;;;0.65;0.50;;;9.00;99.90;;;;;;5036219;28;20132;-67
2024/02/04 01:50:07;;;;;;;0.47;0.30;;;8.90;99.90;;;;;;5038909;28;20108;-66
2024/02/04 01:52:35;;;;;;;0.80;0.43;;;8.90;99.90;;;;;;5034251;28;20025;-66
2024/02/04 01:55:02;;;;;;;0.28;0.28;;;8.90;99.90;;;;;;5054816;28;20048;-66
2024/02/04 01:57:28;;;;;;;0.25;0.10;;;9.00;99.90;;;;;;5037629;28;20029;-66
2024/02/04 01:59:57;;;;;;;0.22;0.22;;;9.00;99.90;;;;;;5041525;28;20025;-66
2024/02/04 02:02:23;;;;;;;0.38;0.30;;;9.00;99.90;;;;;;5037336;28;20078;-66
2024/02/04 02:04:50;;;;;;;0.60;0.30;;;9.00;99.90;;;;;;5035465;28;20080;-66
2024/02/04 02:07:18;;;;;;;0.75;0.38;;;9.00;99.90;;;;;;5028560;28;20051;-66
2024/02/04 02:09:43;;;;;;;0.98;0.40;;;9.00;99.90;;;;;;5035805;28;20167;-67
2024/02/04 02:12:28;;;;;;;1.83;0.57;;;8.90;99.90;;;;;;5036202;28;20524;-67
2024/02/04 02:15:09;;;;;;;0.65;0.40;;;8.90;99.90;;;;;;5036544;28;20155;-67
2024/02/04 02:18:11;;;;;;;1.27;0.43;;;8.90;99.90;;;;;;5018222;28;20028;-67
2024/02/04 02:21:35;;;;;;;0.47;0.40;;;8.80;99.90;;;;;;5037981;28;20505;-67
2024/02/04 02:24:17;;;;;;;1.08;0.80;;;8.80;99.90;;;;;;5043355;28;20039;-67
2024/02/04 02:26:44;;;;;;;3.67;0.85;;;8.80;99.90;;;;;;5035747;28;20041;-67
2024/02/04 02:29:10;;;;;;;1.80;0.85;;;8.70;99.90;;;;;;5038806;28;20420;-67
2024/02/04 02:31:38;;;;;;;1.13;0.60;;;8.70;99.90;;;;;;5037222;28;20029;-67
2024/02/04 02:34:06;;;;;;;1.08;0.70;;;8.60;99.90;;;;;;5037887;28;20055;-67
2024/02/04 02:36:52;;;;;;;0.73;0.45;;;8.60;99.90;;;;;;5037671;28;20455;-67
2024/02/04 02:39:45;;;;;;;1.80;0.82;;;8.60;99.90;;;;;;5035961;28;20047;-66
2024/02/04 02:42:14;;;;;;;1.42;0.80;;;8.60;99.90;;;;;;5010323;28;20036;-71
2024/02/04 02:44:40;;;;;;;0.73;0.60;;;8.60;99.90;;;;;;5035479;28;20021;-71
2024/02/04 02:47:07;;;;;;;2.35;0.68;;;8.50;99.90;;;;;;5036395;28;20052;-70
2024/02/04 02:49:33;;;;;;;1.92;0.90;;;8.60;99.90;;;;;;5035785;28;20017;-67
2024/02/04 02:51:59;;;;;;;4.20;1.08;;;8.60;99.90;;;;;;5036891;28;20025;-67
2024/02/04 02:54:24;;;;;;;3.17;1.30;;;8.50;99.90;;;;;;5036866;28;20021;-67
2024/02/04 02:56:50;;;;;;;4.82;0.63;;;8.50;99.90;;;;;;5037429;28;20118;-67
2024/02/04 02:59:16;;;;;;;1.45;0.70;;;8.50;99.90;;;;;;5039221;28;20047;-67
2024/02/04 03:01:41;;;;;;;1.13;0.88;;;8.50;99.90;;;;;;5035480;28;20279;-66
2024/02/04 03:04:07;;;;;;;1.63;1.00;;;8.50;99.90;;;;;;5038407;28;20028;-67
2024/02/04 03:06:33;;;;;;;1.42;1.00;;;8.40;99.90;;;;;;5035260;28;20029;-67
2024/02/04 03:09:02;;;;;;;1.65;0.80;;;8.40;99.90;;;;;;5025960;28;20017;-67
2024/02/04 03:11:28;;;;;;;1.15;0.80;;;8.40;99.90;;;;;;5038848;28;20022;-68
2024/02/04 03:13:54;;;;;;;0.80;0.60;;;8.40;99.90;;;;;;5040977;28;20052;-67
2024/02/04 03:16:19;;;;;;;1.92;0.82;;;8.40;99.90;;;;;;5040407;28;20029;-68
2024/02/04 03:18:46;;;;;;;2.00;1.80;;;8.40;99.90;;;;;;5042222;28;20116;-67
2024/02/04 03:21:16;;;;;;;1.30;0.90;;;8.30;99.90;;;;;;5040955;28;20027;-67
2024/02/04 03:23:42;;;;;;;6.40;0.60;;;8.40;99.90;;;;;;5020492;28;20042;-65
2024/02/04 03:26:09;;;;;;;2.50;1.17;;;8.40;99.90;;;;;;5041920;28;20480;-66
2024/02/04 03:28:35;;;;;;;1.40;0.80;;;8.30;99.90;;;;;;5039293;28;20615;-66
2024/02/04 03:31:01;;;;;;;1.13;0.75;;;8.40;99.90;;;;;;5045196;28;20032;-66
2024/02/04 03:33:27;;;;;;;0.03;0.03;;;8.50;99.90;;;;;;5040091;28;20021;-66
2024/02/04 03:35:53;;;;;;;0.20;0.20;;;8.70;99.90;;;;;;5039857;28;20593;-66
2024/02/04 03:38:18;;;;;;;0.15;0.10;;;9.00;99.90;;;;;;5022316;28;20040;-66
2024/02/04 03:40:45;;;;;;;0.95;0.40;;;9.10;99.90;;;;;;5038154;28;20033;-66
2024/02/04 03:43:11;;;;;;;0.30;0.30;;;9.20;99.90;;;;;;5039631;28;20025;-66
2024/02/04 03:45:36;;;;;;;0.10;0.10;;;9.30;99.90;;;;;;5036636;28;20083;-66
2024/02/04 03:48:03;;;;;;;0.65;0.25;;;9.30;99.90;;;;;;5040975;28;20086;-66
2024/02/04 03:50:29;;;;;;;0.57;0.20;;;9.30;99.90;;;;;;5040036;28;20024;-66
2024/02/04 03:52:55;;;;;;;0.28;0.20;;;9.40;99.90;;;;;;5055630;28;20041;-66
2024/02/04 03:55:20;;;;;;;1.08;0.93;;;9.40;99.90;;;;;;5040453;28;20068;-66
2024/02/04 03:57:47;;;;;;;0.88;0.30;;;9.40;99.90;;;;;;5037899;28;20037;-66
2024/02/04 04:00:13;;;;;;;1.02;0.30;;;9.40;99.90;;;;;;5040815;28;20112;-66
2024/02/04 04:02:39;;;;;;;0.55;0.10;;;9.40;99.90;;;;;;5039653;28;20068;-66
2024/02/04 04:05:06;;;;;;;0.57;0.25;;;9.40;99.90;;;;;;5039676;28;20044;-66
2024/02/04 04:07:32;;;;;;;0.22;0.20;;;9.40;99.90;;;;;;5038710;28;20021;-66
2024/02/04 04:09:58;;;;;;;0.20;0.20;;;9.40;99.90;;;;;;5040768;28;20436;-66
2024/02/04 04:12:23;;;;;;;0.80;0.30;;;9.40;99.90;;;;;;5030332;28;20129;-66
2024/02/04 04:14:49;;;;;;;0.73;0.40;;;9.40;99.90;;;;;;5037682;28;20053;-67
2024/02/04 04:17:15;;;;;;;0.30;0.30;;;9.40;99.90;;;;;;5040033;28;20055;-67
2024/02/04 04:19:40;;;;;;;0.20;0.20;;;9.30;99.90;;;;;;5041571;28;20052;-67
2024/02/04 04:22:06;;;;;;;0.30;0.25;;;9.40;99.90;;;;;;5043626;28;20048;-67
2024/02/04 04:24:32;;;;;;;1.85;0.60;;;9.40;99.90;;;;;;5037045;28;20025;-68
2024/02/04 04:26:58;;;;;;;0.30;0.30;;;9.40;99.90;;;;;;5040347;28;20743;-67
2024/02/04 04:29:23;;;;;;;0.30;0.25;;;9.30;99.90;;;;;;5039339;28;20021;-67
2024/02/04 04:31:49;;;;;;;0.30;0.25;;;9.40;99.90;;;;;;5039093;28;20060;-66
2024/02/04 04:34:18;;;;;;;0.10;0.10;;;9.40;99.90;;;;;;5039708;28;20024;-67
2024/02/04 04:36:43;;;;;;;0.15;0.10;;;9.40;99.90;;;;;;5037750;28;20490;-67
2024/02/04 04:39:09;;;;;;;0.52;0.52;;;9.40;99.90;;;;;;5039087;28;20068;-66
2024/02/04 04:41:36;;;;;;;0.40;0.20;;;9.40;99.90;;;;;;5042390;28;20025;-68
2024/02/04 04:44:01;;;;;;;0.45;0.45;;;9.40;99.90;;;;;;5039116;28;20036;-70
2024/02/04 04:46:27;;;;;;;0.03;0.03;;;9.40;99.90;;;;;;5033495;28;20026;-66
2024/02/04 04:48:57;;;;;;;0.30;0.10;;;9.40;99.90;;;;;;5038239;28;20029;-67
2024/02/04 04:51:24;;;;;;;0.83;0.10;;;9.50;99.90;;;;;;5037473;28;20056;-67
2024/02/04 04:53:50;;;;;;;0.10;0.10;;;9.40;99.90;;;;;;5037167;28;20276;-67
2024/02/04 04:56:15;;;;;;;0.17;0.17;;;9.40;99.90;;;;;;5040851;28;20033;-67
2024/02/04 04:58:41;;;;;;;0.73;0.35;;;9.40;99.90;;;;;;5037483;28;20036;-67
2024/02/04 05:01:07;;;;;;;0.30;0.30;;;9.40;99.90;;;;;;5040082;28;20116;-67
2024/02/04 05:03:33;;;;;;;0.50;0.32;;;9.40;99.90;;;;;;5041166;28;20027;-67
2024/02/04 05:06:00;;;;;;;0.20;0.15;;;9.40;99.90;;;;;;5043337;28;20037;-66
2024/02/04 05:08:26;;;;;;;0.10;0.10;;;9.40;99.90;;;;;;5042939;28;20028;-66
2024/02/04 05:10:52;;;;;;;0.20;0.20;;;9.50;99.90;;;;;;5045438;28;20107;-67
2024/02/04 05:13:18;;;;;;;0.20;0.10;;;9.50;99.90;;;;;;5044135;28;20466;-67
2024/02/04 05:15:43;;;;;;;0.30;0.30;;;9.50;99.90;;;;;;5044353;28;20094;-67
2024/02/04 05:18:09;;;;;;;0.17;0.10;;;9.50;99.90;;;;;;5036580;28;20100;-67
2024/02/04 05:20:35;;;;;;;0.35;0.32;;;9.40;99.90;;;;;;5033631;28;20100;-68
2024/02/04 05:23:00;;;;;;;1.13;0.20;;;9.40;99.90;;;;;;5024876;28;20037;-66
2024/02/04 05:25:26;;;;;;;0.17;0.15;;;9.40;99.90;;;;;;5029286;28;20029;-66
2024/02/04 05:27:52;;;;;;;0.20;0.10;;;9.40;99.90;;;;;;5032880;28;20540;-67
2024/02/04 05:30:18;;;;;;;0.47;0.28;;;9.40;99.90;;;;;;5036084;28;20033;-67
2024/02/04 05:32:44;;;;;;;0.45;0.30;;;9.40;99.90;;;;;;5030644;28;20033;-67
2024/02/04 05:35:11;;;;;;;0.82;0.50;;;9.40;99.90;;;;;;5032346;28;20065;-67
2024/02/04 05:37:37;;;;;;;0.45;0.40;;;9.40;99.90;;;;;;5031175;28;20037;-67
2024/02/04 05:40:04;;;;;;;0.28;0.20;;;9.40;99.90;;;;;;5014332;28;20378;-67
2024/02/04 05:42:31;;;;;;;0.35;0.25;;;9.30;99.90;;;;;;5030682;28;20021;-67
2024/02/04 05:44:58;;;;;;;0.70;0.25;;;9.30;99.90;;;;;;5026522;28;20026;-67
2024/02/04 05:47:24;;;;;;;0.70;0.20;;;9.30;99.90;;;;;;5027187;28;20025;-67
2024/02/04 05:49:49;;;;;;;0.77;0.47;;;9.40;99.90;;;;;;5030528;28;20032;-66
2024/02/04 05:52:15;;;;;;;1.02;0.43;;;9.30;99.90;;;;;;5046840;28;20550;-66
2024/02/04 05:54:41;;;;;;;0.00;0.00;;;9.40;99.90;;;;;;5030279;28;20520;-67
2024/02/04 05:57:07;;;;;;;0.17;0.15;;;9.30;99.90;;;;;;5047054;28;20068;-66
2024/02/04 05:59:34;;;;;;;0.10;0.10;;;9.30;99.90;;;;;;5033624;28;20116;-66
2024/02/04 06:02:00;;;;;;;0.08;0.08;;;9.30;99.90;;;;;;5029978;28;20477;-66
2024/02/04 06:04:25;;;;;;;0.93;0.20;;;9.30;99.90;;;;;;5030660;28;20061;-66
2024/02/04 06:06:51;;;;;;;0.17;0.08;;;9.30;99.90;;;;;;5031709;28;20029;-66
2024/02/04 06:09:17;;;;;;;0.52;0.20;;;9.40;99.90;;;;;;5030893;28;20037;-66
2024/02/04 06:11:46;;;;;;;0.55;0.30;;;9.30;99.90;;;;;;5030755;28;20029;-66
2024/02/04 06:14:13;;;;;;;0.10;0.08;;;9.30;99.90;;;;;;5045571;28;20033;-67
2024/02/04 06:16:38;;;;;;;0.40;0.20;;;9.30;99.90;;;;;;5029589;28;20040;-67
2024/02/04 06:19:05;;;;;;;0.85;0.57;;;9.30;99.90;;;;;;5046615;28;20038;-67
2024/02/04 06:21:31;;;;;;;0.10;0.10;;;9.30;99.90;;;;;;5030755;28;20036;-67
2024/02/04 06:23:56;;;;;;;0.05;0.05;;;9.30;99.90;;;;;;5045619;28;20037;-67
2024/02/04 06:26:22;;;;;;;0.25;0.17;;;9.30;99.90;;;;;;5032612;28;20037;-65
2024/02/04 06:28:50;;;;;;;1.70;0.77;;;9.30;99.90;;;;;;5031081;28;20029;-65
2024/02/04 06:31:16;;;;;;;0.13;0.10;;;9.30;99.90;;;;;;5034419;28;20056;-65
2024/02/04 06:33:42;;;;;;;0.03;0.03;;;9.30;99.90;;;;;;5029797;28;20068;-65
2024/02/04 06:36:11;;;;;;;0.10;0.10;;;9.20;99.90;;;;;;5046129;28;20037;-65
2024/02/04 06:38:37;;;;;;;0.30;0.20;;;9.00;99.90;;;;;;5034201;28;20653;-65
2024/02/04 06:41:03;;;;;;;0.43;0.20;;;8.90;99.90;;;;;;5033200;28;20022;-65
2024/02/04 06:43:29;;;;;;;0.35;0.35;;;8.80;99.90;;;;;;5008987;28;20463;-66
2024/02/04 06:45:54;;;;;;;0.28;0.25;;;8.70;99.90;;;;;;5029519;28;20509;-65
2024/02/04 06:48:20;;;;;;;0.10;0.10;;;8.60;99.90;;;;;;5028479;28;20048;-66
2024/02/04 06:50:47;;;;;;;0.85;0.47;;;8.50;99.90;;;;;;5030501;28;20029;-65
2024/02/04 06:53:14;;;;;;;0.20;0.20;;;8.50;99.90;;;;;;5026818;28;20083;-66
2024/02/04 06:55:40;;;;;;;0.93;0.28;;;8.50;99.90;;;;;;5030522;28;20033;-67
2024/02/04 06:58:05;;;;;;;0.20;0.20;;;8.50;99.90;;;;;;5030592;28;20121;-65
2024/02/04 07:00:31;;;;;;;0.50;0.20;;;8.50;99.90;;;;;;5049800;28;20211;-65
2024/02/04 07:02:57;;;;;;;0.52;0.20;;;8.50;99.90;;;;;;5042055;28;20030;-65
2024/02/04 07:05:23;;;;;;;0.90;0.55;;;8.50;99.90;;;;;;5029320;28;20036;-66
2024/02/04 07:07:52;;;;;;;1.15;0.35;;;8.50;99.90;;;;;;5029384;28;20025;-67
2024/02/04 07:10:18;;;;;;;0.52;0.22;;;8.40;99.90;;;;;;5029779;28;20381;-66
2024/02/04 07:12:44;;;;;;;1.75;0.40;;;8.40;99.90;;;;;;5029737;28;20533;-65
2024/02/04 07:15:10;;;;;;;0.47;0.17;;;8.50;99.90;;;;;;5030500;28;20060;-67
2024/02/04 07:17:36;;;;;;;0.10;0.10;;;8.50;99.90;;;;;;5030520;28;20079;-66
2024/02/04 07:20:02;;;;;;;0.15;0.15;;;8.40;99.90;;;;;;5029609;28;20060;-66
2024/02/04 07:22:28;;;;;;;0.15;0.15;;;8.40;99.90;;;;;;5009216;28;20018;-67
2024/02/04 07:24:54;;;;;;;0.20;0.20;;;8.40;99.90;;;;;;5029386;28;20034;-66
2024/02/04 07:27:20;;;;;;;4.47;0.80;;;8.40;99.90;;;;;;5030564;28;20041;-66
2024/02/04 07:29:47;;;;;;;0.35;0.28;;;8.40;99.90;;;;;;5034558;28;20101;-66
2024/02/04 07:32:14;;;;;;;0.57;0.50;;;8.30;99.90;;;;;;5030380;28;20029;-66
2024/02/04 07:34:43;;;;;;;0.45;0.40;;;8.30;99.90;;;;;;5028253;28;20113;-66
2024/02/04 07:37:09;;;;;;;0.85;0.55;;;8.20;99.90;;;;;;5030448;28;20025;-66
2024/02/04 07:39:34;;;;;;;0.40;0.20;;;8.30;99.90;;;;;;5029566;28;20472;-66
2024/02/04 07:42:00;;;;;;;1.10;0.43;;;8.20;99.90;;;;;;5030622;28;20021;-67
2024/02/04 07:44:29;;;;;;;0.38;0.32;;;8.20;99.90;;;;;;5029224;28;20021;-66
2024/02/04 07:46:58;;;;;;;1.33;0.77;;;8.30;99.90;;;;;;5030506;28;20029;-71
2024/02/04 07:49:24;;;;;;;2.92;1.00;;;8.30;99.90;;;;;;5044527;28;20018;-66
2024/02/04 07:51:49;;;;;;;6.95;0.40;;;8.20;99.90;;;;;;5030012;28;20406;-67
2024/02/04 07:54:16;;;;;;;1.13;0.55;;;8.30;99.90;;;;;;5031407;28;20036;-66
2024/02/04 07:56:42;;;;;;;0.98;0.65;;;8.30;99.90;;;;;;5032634;28;20045;-66
2024/02/04 07:59:07;;;;;;;0.45;0.40;;;8.20;99.90;;;;;;5035682;28;20033;-66
2024/02/04 08:01:33;;;;;;;0.30;0.30;;;8.20;99.90;;;;;;5036156;28;20490;-67
2024/02/04 08:03:59;;;;;;;3.28;0.70;;;8.20;99.90;;;;;;5032321;28;20029;-67
2024/02/04 08:06:25;;;;;;;0.75;0.43;;;8.20;99.90;;;;;;5033695;28;20393;-66
2024/02/04 08:08:51;;;;;;;0.95;0.57;;;8.20;99.90;;;;;;5031522;28;20056;-70
2024/02/04 08:11:21;;;;;;;1.60;0.52;;;8.20;99.90;;;;;;5029418;28;20085;-67
2024/02/04 08:13:47;;;;;;;1.10;0.73;;;8.30;99.90;;;;;;5031568;28;20037;-68
2024/02/04 08:16:12;;;;;;;0.90;0.52;;;8.30;99.90;;;;;;5033391;28;20041;-67
2024/02/04 08:18:38;;;;;;;0.95;0.60;;;8.30;99.90;;;;;;5030315;28;20685;-68
2024/02/04 08:21:04;;;;;;;0.28;0.20;;;8.40;99.90;;;;;;5031201;28;20030;-67
2024/02/04 08:23:30;;;;;;;0.70;0.50;;;8.50;99.90;;;;;;5032359;28;20401;-68
2024/02/04 08:25:57;;;;;;;1.30;0.80;;;8.50;99.90;;;;;;5032044;28;20032;-67
2024/02/04 08:28:24;;;;;;;0.73;0.32;;;8.60;99.90;;;;;;5032676;28;20112;-67
2024/02/04 08:30:50;;;;;;;1.13;0.55;;;8.50;99.90;;;;;;5036647;28;20028;-68
2024/02/04 08:33:16;;;;;;;1.08;0.60;;;8.50;99.90;;;;;;5030427;28;20033;-68
2024/02/04 08:35:42;;;;;;;1.35;0.95;;;8.40;99.90;;;;;;5040184;28;20119;-67
2024/02/04 08:38:07;;;;;;;2.42;1.33;;;8.40;99.90;;;;;;5032931;28;20116;-67
2024/02/04 08:40:33;;;;;;;1.33;0.68;;;8.50;99.90;;;;;;5032012;28;20048;-67
2024/02/04 08:42:59;;;;;;;1.80;1.02;;;8.40;99.90;;;;;;5031813;28;20501;-68
2024/02/04 08:45:24;;;;;;;1.00;0.75;;;8.50;99.90;;;;;;5033154;28;20064;-68
2024/02/04 08:47:50;;;;;;;2.30;1.20;;;8.50;99.90;;;;;;5032231;28;20512;-67
2024/02/04 08:50:16;;;;;;;4.00;0.90;;;8.50;99.90;;;;;;5033111;28;20092;-67
2024/02/04 08:52:42;;;;;;;1.65;0.50;;;8.50;99.90;;;;;;5031358;28;20101;-67
2024/02/04 08:55:08;;;;;;;1.42;0.85;;;8.50;99.90;;;;;;5031635;28;20769;-67
2024/02/04 08:57:34;;;;;;;0.82;0.60;;;8.50;99.90;;;;;;5045244;28;20052;-68
2024/02/04 09:00:00;;;;;;;1.48;0.80;;;8.60;99.90;;;;;;5031561;28;20025;-68
2024/02/04 09:02:26;;;;;;;1.45;0.50;;;8.60;99.90;;;;;;5028922;28;20036;-67
2024/02/04 09:04:52;;;;;;;0.50;0.43;;;8.60;99.90;;;;;;5031356;28;20025;-67
2024/02/04 09:07:18;;;;;;;1.75;0.80;;;8.70;99.90;;;;;;5031815;28;20033;-67
2024/02/04 09:09:44;;;;;;;1.95;0.57;;;8.80;99.90;;;;;;5031245;28;20025;-67
2024/02/04 09:12:10;;;;;;;0.85;0.50;;;8.90;99.90;;;;;;5028802;28;20018;-67
2024/02/04 09:14:36;;;;;;;0.43;0.35;;;8.90;99.90;;;;;;5032054;28;20083;-68
2024/02/04 09:17:06;;;;;;;2.42;0.70;;;9.00;99.90;;;;;;5028536;28;20036;-67
2024/02/04 09:19:32;;;;;;;1.00;0.57;;;8.90;99.90;;;;;;5032534;28;20029;-68
2024/02/04 09:21:58;;;;;;;0.85;0.45;;;9.00;99.90;;;;;;5047461;28;20037;-68
2024/02/04 09:24:24;;;;;;;0.40;0.40;;;8.80;99.90;;;;;;5032058;28;20076;-68
2024/02/04 09:26:52;;;;;;;0.55;0.45;;;8.80;99.90;;;;;;5031441;28;20110;-68
2024/02/04 09:29:17;;;;;;;2.03;0.30;;;8.80;99.90;;;;;;5031983;28;20030;-67
2024/02/04 09:31:43;;;;;;;1.95;1.05;;;8.90;99.90;;;;;;5032173;28;20083;-68
2024/02/04 09:34:10;;;;;;;0.60;0.50;;;8.90;99.90;;;;;;5030845;28;20080;-68
2024/02/04 09:36:36;;;;;;;0.93;0.55;;;9.00;99.90;;;;;;5031985;28;20057;-68
2024/02/04 09:39:02;;;;;;;0.77;0.55;;;9.00;99.90;;;;;;5031656;28;20482;-68
2024/02/04 09:41:28;;;;;;;1.27;0.80;;;9.10;99.90;;;;;;5030298;28;20029;-67
2024/02/04 09:43:55;;;;;;;0.55;0.35;;;9.10;99.90;;;;;;5031546;28;20061;-67
2024/02/04 09:46:21;;;;;;;1.15;0.40;;;9.30;99.90;;;;;;5030764;28;20037;-67
2024/02/04 09:48:49;;;;;;;0.60;0.40;;;9.50;99.90;;;;;;5013988;28;20083;-67
2024/02/04 09:51:15;;;;;;;0.70;0.60;;;9.50;99.90;;;;;;5030535;28;20026;-67
2024/02/04 09:53:45;;;;;;;0.40;0.35;;;9.50;99.90;;;;;;5030103;28;20056;-67
2024/02/04 09:56:12;;;;;;;0.55;0.25;;;9.50;99.90;;;;;;5031004;28;20036;-67
2024/02/04 09:58:38;;;;;;;0.88;0.20;;;9.80;99.90;;;;;;5047247;28;20060;-67
2024/02/04 10:01:08;;;;;;;0.20;0.20;;;9.90;99.90;;;;;;5030122;28;20051;-67
2024/02/04 10:03:34;;;;;;;0.03;0.03;;;10.00;99.90;;;;;;5030597;28;20486;-67
2024/02/04 10:06:00;;;;;;;0.40;0.28;;;10.00;99.90;;;;;;5030773;28;20128;-67
2024/02/04 10:08:26;;;;;;;0.10;0.10;;;10.10;99.90;;;;;;5030576;28;20029;-67
2024/02/04 10:10:53;;;;;;;0.35;0.25;;;10.00;99.90;;;;;;5029109;28;20532;-67
2024/02/04 10:13:20;;;;;;;0.43;0.20;;;10.10;99.90;;;;;;5046080;28;20390;-67
2024/02/04 10:15:47;;;;;;;0.00;0.00;;;10.20;99.90;;;;;;5028944;28;20029;-68
2024/02/04 10:18:13;;;;;;;0.20;0.13;;;10.20;99.90;;;;;;5031271;28;20079;-67
2024/02/04 10:20:39;;;;;;;0.10;0.10;;;10.30;99.90;;;;;;5028143;28;20049;-67
2024/02/04 10:23:05;;;;;;;0.30;0.30;;;10.20;99.90;;;;;;5031880;28;20040;-68
2024/02/04 10:25:31;;;;;;;1.02;0.32;;;10.20;99.90;;;;;;5030277;28;20454;-67
2024/02/04 10:27:58;;;;;;;0.47;0.20;;;10.20;99.90;;;;;;5038602;28;20071;-67
2024/02/04 10:30:24;;;;;;;0.10;0.10;;;10.10;99.90;;;;;;5036301;28;20470;-68
2024/02/04 10:32:53;;;;;;;0.40;0.30;;;10.20;99.90;;;;;;5039826;28;20037;-68
2024/02/04 10:35:23;;;;;;;0.45;0.30;;;10.30;99.90;;;;;;5026829;28;20124;-67
2024/02/04 10:37:50;;;;;;;0.73;0.17;;;10.30;99.90;;;;;;5031201;28;20540;-67
2024/02/04 10:40:16;;;;;;;1.02;0.20;;;10.30;99.90;;;;;;5030635;28;20116;-68
2024/02/04 10:42:46;;;;;;;1.25;0.40;;;10.30;99.90;;;;;;5028970;28;20440;-68
2024/02/04 10:45:16;;;;;;;0.55;0.20;;;10.30;99.90;;;;;;5042165;28;20101;-66
2024/02/04 10:47:50;;;;;;;0.10;0.10;;;10.40;99.90;;;;;;5044820;28;20018;-67
2024/02/04 10:50:16;;;;;;;0.00;0.00;;;10.50;99.90;;;;;;5029553;28;20029;-68
2024/02/04 10:52:46;;;;;;;1.55;0.20;;;10.50;99.90;;;;;;5029140;28;20028;-68
2024/02/04 10:55:12;;;;;;;0.25;0.22;;;10.50;99.90;;;;;;5045041;28;20104;-68
2024/02/04 10:57:39;;;;;;;0.10;0.05;;;10.50;99.90;;;;;;5029772;28;20029;-68
2024/02/04 11:00:11;;;;;;;0.30;0.22;;;10.50;99.90;;;;;;5028687;28;20045;-68
2024/02/04 11:02:38;;;;;;;0.05;0.05;;;10.50;99.90;;;;;;5029091;28;20040;-68
2024/02/04 11:05:06;;;;;;;0.08;0.03;;;10.50;99.90;;;;;;5022817;28;20026;-67
2024/02/04 11:07:36;;;;;;;0.93;0.40;;;10.50;99.90;;;;;;5010387;28;20018;-68
2024/02/04 11:10:03;;;;;;;0.10;0.10;;;10.50;99.90;;;;;;5025668;28;20034;-68
2024/02/04 11:12:31;;;;;;;0.10;0.10;;;10.70;99.90;;;;;;5027357;28;20032;-68
2024/02/04 11:15:04;;;;;;;0.10;0.10;;;10.70;99.90;;;;;;5027402;28;20025;-67
2024/02/04 11:18:11;;;;;;;2.70;0.75;;;10.80;99.90;;;;;;5029057;28;20513;-68
2024/02/04 11:20:43;;;;;;;0.77;0.13;;;10.80;99.90;;;;;;5008909;28;20069;-67
2024/02/04 11:24:18;;;;;;;0.00;0.00;;;10.70;99.90;;;;;;5045294;28;20113;-68
2024/02/04 11:26:44;;;;;;;2.05;0.17;;;10.80;99.90;;;;;;5036526;28;20133;-60
2024/02/04 11:29:10;;;;;;;0.03;0.00;;;10.80;99.90;;;;;;5032713;28;20032;-60
2024/02/04 11:31:39;;;;;;;0.55;0.20;;;10.70;99.90;;;;;;5033443;28;20377;-55
2024/02/04 11:34:06;;;;;;;0.20;0.20;;;10.70;99.90;;;;;;5031953;28;20584;-60
2024/02/04 11:36:39;;;;;;;1.50;0.22;;;10.70;99.90;;;;;;5031437;28;20025;-66
2024/02/04 11:39:21;;;;;;;0.40;0.30;;;10.80;99.90;;;;;;5049446;28;20104;-66
2024/02/04 11:41:48;;;;;;;0.10;0.10;;;10.70;99.90;;;;;;5032464;28;20443;-66
2024/02/04 11:44:25;;;;;;;0.20;0.20;;;10.70;99.90;;;;;;5032893;28;20029;-66
2024/02/04 11:46:52;;;;;;;0.32;0.28;;;10.70;99.90;;;;;;5033965;28;20068;-66
2024/02/04 11:49:19;;;;;;;0.35;0.22;;;10.80;99.90;;;;;;5032267;28;20017;-67
2024/02/04 11:51:51;;;;;;;0.32;0.30;;;10.80;99.90;;;;;;5033981;28;20033;-67
2024/02/04 11:54:21;;;;;;;0.38;0.30;;;10.80;99.90;;;;;;5032908;28;20036;-67
2024/02/04 11:57:05;;;;;;;0.30;0.30;;;10.80;99.90;;;;;;5034165;28;20186;-67
2024/02/04 11:59:31;;;;;;;0.08;0.08;;;10.90;99.90;;;;;;5033177;28;20041;-67
2024/02/04 12:01:57;;;;;;;0.35;0.08;;;10.90;99.90;;;;;;5034167;28;20025;-66
2024/02/04 12:04:23;;;;;;;0.20;0.13;;;11.00;99.90;;;;;;5041538;28;20370;-66
2024/02/04 12:06:51;;;;;;;0.15;0.05;;;11.00;99.90;;;;;;5044479;28;20036;-66
2024/02/04 12:09:18;;;;;;;0.47;0.20;;;11.00;99.90;;;;;;5040773;28;20021;-67
2024/02/04 12:11:44;;;;;;;2.38;0.17;;;11.10;99.90;;;;;;5033901;28;20044;-67
2024/02/04 12:14:13;;;;;;;0.10;0.10;;;11.00;99.90;;;;;;5031039;28;20021;-67
2024/02/04 12:16:39;;;;;;;0.25;0.20;;;11.00;99.90;;;;;;5033656;28;20037;-67
2024/02/04 12:19:05;;;;;;;0.13;0.13;;;11.00;99.90;;;;;;5033028;28;20017;-66
2024/02/04 12:21:32;;;;;;;0.10;0.10;;;11.10;99.90;;;;;;5033591;28;20017;-66
2024/02/04 12:24:02;;;;;;;0.00;0.00;;;11.20;99.90;;;;;;5033557;28;20021;-66
2024/02/04 12:26:28;;;;;;;0.10;0.10;;;11.30;99.90;;;;;;5036278;28;20030;-66
2024/02/04 12:28:54;;;;;;;0.20;0.17;;;11.50;99.90;;;;;;5056912;28;20061;-66
2024/02/04 12:31:24;;;;;;;0.22;0.20;;;11.40;99.90;;;;;;5039335;28;20033;-66
2024/02/04 12:33:57;;;;;;;4.45;0.10;;;11.60;99.90;;;;;;5032656;28;20119;-67
2024/02/04 12:36:31;;;;;;;0.30;0.10;;;11.70;99.90;;;;;;5023984;28;20030;-66
2024/02/04 12:39:00;;;;;;;0.10;0.10;;;11.70;99.90;;;;;;5025778;28;20104;-66
2024/02/04 12:41:28;;;;;;;0.47;0.30;;;11.70;99.90;;;;;;5033435;28;20401;-67
2024/02/04 12:43:59;;;;;;;0.15;0.15;;;11.70;99.90;;;;;;5024829;28;20682;-67
2024/02/04 12:46:24;;;;;;;;;;;11.50;99.90;;;;;;5033252;28;20028;-66
2024/02/04 12:48:58;;;;;;;0.45;0.32;;;11.70;99.90;;;;;;5033030;28;19913;-66
2024/02/04 12:51:31;;;;;;;1.00;0.25;;;11.50;99.90;;;;;;5032665;28;20025;-66
2024/02/04 12:54:09;;;;;;;0.15;0.15;;;11.30;99.90;;;;;;5032145;28;20029;-66
2024/02/04 12:56:46;;;;;;;0.22;0.20;;;11.20;99.90;;;;;;5026792;28;20026;-66